Terminal Aerodrome Forecast
Issued by NWS Huntsville, AL

Home | Current Version | Previous Version | Text Only | Print | Product List | Glossary On
Versions: 1 2 3 4 5 6 7 8 9 10 11 12 13 14
000
FTUS44 KHUN 242340
TAFHSV
TAF
KHSV 242340Z 2500/2524 22015G20KT P6SM SCT050
     FM250100 20010KT P6SM VCSH SCT030 OVC040
     FM250300 24008KT 5SM -SHRA VCTS BKN025CB OVC040
     FM250500 27008KT P6SM VCSH BKN030
     FM251000 30009KT P6SM SCT040=

USA.gov is the U.S. government's official web portal to all federal, state and local government web resources and services.